createdAt,value
2022-11-22T00:00:45.016Z,14.82
2022-11-22T00:11:51.220Z,13.32
2022-11-22T00:17:03.371Z,13.57
2022-11-22T00:22:01.470Z,14.57
2022-11-22T00:26:59.410Z,14.00
2022-11-22T00:31:55.850Z,13.30
2022-11-22T00:36:49.730Z,13.38
2022-11-22T00:48:29.860Z,12.57
2022-11-22T01:00:11.089Z,14.02
2022-11-22T01:05:16.036Z,13.32
2022-11-22T01:10:19.045Z,12.25
2022-11-22T01:15:16.013Z,13.05
2022-11-22T01:20:13.577Z,12.52
2022-11-22T01:25:51.792Z,11.95
2022-11-22T01:30:58.773Z,12.32
2022-11-22T01:35:57.593Z,12.35
2022-11-22T01:40:55.932Z,13.27
2022-11-22T01:45:54.906Z,12.60
2022-11-22T01:50:59.584Z,12.48
2022-11-22T01:55:58.050Z,12.95
2022-11-22T02:00:55.275Z,12.88
2022-11-22T02:06:09.189Z,12.65
2022-11-22T02:11:16.638Z,13.18
2022-11-22T02:16:13.664Z,12.23
2022-11-22T02:21:11.261Z,13.65
2022-11-22T02:26:06.913Z,15.48
2022-11-22T02:31:41.808Z,16.23
2022-11-22T02:37:32.608Z,14.48
2022-11-22T02:43:24.968Z,13.45
2022-11-22T02:48:26.486Z,12.93
2022-11-22T02:54:18.798Z,12.25
2022-11-22T02:59:49.746Z,13.15
2022-11-22T03:05:03.204Z,15.03
2022-11-22T03:09:58.915Z,14.32
2022-11-22T03:14:56.611Z,14.02
2022-11-22T03:20:04.230Z,13.13
2022-11-22T03:25:09.608Z,13.27
2022-11-22T03:30:29.596Z,12.13
2022-11-22T03:36:12.655Z,12.25
2022-11-22T03:41:22.911Z,12.95
2022-11-22T03:46:26.705Z,14.30
2022-11-22T03:52:08.183Z,15.75
2022-11-22T04:02:08.206Z,16.05
2022-11-22T04:07:02.170Z,15.10
2022-11-22T05:21:32.617Z,13.82
2022-11-22T05:46:32.407Z,17.63
2022-11-22T05:52:39.385Z,18.00
2022-11-22T05:58:36.318Z,19.73
2022-11-22T06:11:43.407Z,15.03
2022-11-22T06:17:40.233Z,14.53
2022-11-22T06:29:41.110Z,17.17
2022-11-22T06:35:14.583Z,18.03
2022-11-22T06:46:28.139Z,16.73
2022-11-22T06:51:23.380Z,14.73
2022-11-22T06:56:19.792Z,16.10
2022-11-22T07:01:19.307Z,14.10
2022-11-22T07:06:14.728Z,23.30
2022-11-22T07:11:09.348Z,23.00
2022-11-22T07:16:13.215Z,15.75
2022-11-22T07:21:13.259Z,14.60
2022-11-22T07:26:07.214Z,14.60
2022-11-22T07:31:01.239Z,12.38
2022-11-22T07:36:18.128Z,12.30
2022-11-22T07:41:11.627Z,12.40
2022-11-22T07:46:08.397Z,11.48
2022-11-22T07:51:08.061Z,11.63
2022-11-22T07:56:03.559Z,12.03
2022-11-22T08:00:57.011Z,12.40
2022-11-22T08:05:50.259Z,12.35
2022-11-22T08:10:52.859Z,12.55
2022-11-22T08:15:48.487Z,12.65
2022-11-22T08:20:41.975Z,12.68
2022-11-22T08:25:35.227Z,11.45
2022-11-22T08:30:29.849Z,12.75
2022-11-22T08:35:23.236Z,12.27
2022-11-22T08:40:17.188Z,11.85
2022-11-22T08:45:11.376Z,11.38
2022-11-22T08:50:07.667Z,11.25
2022-11-22T08:55:01.417Z,11.75
2022-11-22T08:59:54.887Z,10.45
2022-11-22T09:10:05.880Z,10.20
2022-11-22T09:15:06.209Z,9.30
2022-11-22T09:19:59.704Z,9.15
2022-11-22T09:25:15.274Z,9.63
2022-11-22T09:30:11.519Z,11.27
2022-11-22T09:35:10.569Z,9.40
2022-11-22T09:40:04.015Z,9.55
2022-11-22T09:45:18.920Z,10.02
2022-11-22T09:50:22.252Z,9.73
2022-11-22T09:55:25.151Z,19.17
2022-11-22T10:00:22.504Z,10.25
2022-11-22T10:05:22.205Z,9.50
2022-11-22T10:10:20.750Z,8.50
2022-11-22T10:15:27.396Z,9.05
2022-11-22T10:20:23.747Z,9.70
2022-11-22T10:25:20.724Z,9.20
2022-11-22T10:30:17.837Z,9.40
2022-11-22T10:35:25.828Z,8.80
2022-11-22T10:40:24.704Z,8.68
2022-11-22T10:45:25.847Z,8.80
2022-11-22T10:50:26.087Z,9.25
2022-11-22T11:00:21.063Z,8.48
2022-11-22T11:05:19.817Z,8.07
2022-11-22T11:10:29.151Z,8.20
2022-11-22T11:15:35.441Z,7.25
2022-11-22T11:20:32.048Z,7.15
2022-11-22T11:25:35.452Z,7.53
2022-11-22T11:30:29.039Z,7.10
2022-11-22T11:35:32.544Z,6.63
2022-11-22T11:40:31.676Z,6.68
2022-11-22T11:45:30.901Z,6.03
2022-11-22T11:50:26.909Z,4.97
2022-11-22T11:55:38.679Z,4.35
2022-11-22T12:00:41.400Z,7.40
2022-11-22T12:05:36.074Z,7.93
2022-11-22T12:10:35.569Z,6.25
2022-11-22T12:15:37.746Z,7.47
2022-11-22T12:20:43.940Z,6.57
2022-11-22T12:25:41.027Z,6.78
2022-11-22T12:30:47.851Z,6.00
2022-11-22T12:36:01.070Z,6.20
2022-11-22T12:40:57.833Z,4.13
2022-11-22T12:45:55.304Z,5.13
2022-11-22T12:50:56.717Z,5.57
2022-11-22T12:56:03.343Z,6.10
2022-11-22T13:01:12.021Z,6.38
2022-11-22T13:06:13.974Z,7.20
2022-11-22T13:11:18.920Z,6.47
2022-11-22T13:16:16.055Z,6.47
2022-11-22T13:21:24.693Z,5.78
2022-11-22T13:26:30.570Z,7.22
2022-11-22T13:31:28.511Z,6.10
2022-11-22T13:36:43.085Z,5.20
2022-11-22T13:42:03.558Z,8.73
2022-11-22T13:47:05.128Z,8.70
2022-11-22T13:52:01.664Z,5.93
2022-11-22T13:57:07.075Z,5.88
2022-11-22T14:02:07.303Z,9.02
2022-11-22T14:07:06.562Z,8.50
2022-11-22T14:12:38.117Z,9.68
2022-11-22T14:17:41.750Z,12.80
2022-11-22T14:22:59.242Z,13.13
2022-11-22T14:28:35.558Z,14.98
2022-11-22T14:33:31.796Z,15.63
2022-11-22T14:38:34.962Z,14.95
2022-11-22T14:43:41.600Z,16.48
2022-11-22T14:48:47.552Z,14.25
2022-11-22T14:53:49.133Z,16.60
2022-11-22T14:59:08.273Z,18.17
2022-11-22T15:09:21.986Z,14.95
2022-11-22T15:10:30.851Z,13.95
2022-11-22T16:11:31.316Z,15.05
2022-11-22T16:17:09.964Z,13.00
2022-11-22T16:22:07.866Z,13.48
2022-11-22T16:27:17.512Z,12.68
2022-11-22T16:33:11.293Z,12.15
2022-11-22T16:38:33.958Z,13.65
2022-11-22T16:44:17.865Z,12.43
2022-11-22T16:50:10.111Z,11.10
2022-11-22T16:55:40.933Z,11.73
2022-11-22T17:13:24.690Z,12.25
2022-11-22T17:19:08.706Z,9.63
2022-11-22T18:17:40.905Z,14.73
2022-11-22T21:33:35.428Z,10.00
2022-11-22T22:13:25.436Z,10.98
2022-11-22T23:22:55.465Z,6.32
2022-11-22T23:28:59.821Z,6.38
2022-11-22T23:34:07.534Z,6.30
2022-11-22T23:45:00.606Z,7.13
2022-11-22T23:50:04.569Z,6.30
